Bedford, Texas
Current Conditions -  °F | °C
As of 3:53 AM on Wednesday 26 Nov 2014 (Local Time) from KDFW Reporting Station
Clear Clear  
Wind Chill: 33°   Ceiling: Unl
Heat Index: 39°   Visibility: 10mi
Dew Point: 30°   Wind: 9mph
Humidity: 70%   Direction: 200°SSW
Pressure: 30.04"   Gusts: NA
Location:  32.84°N, 97.14°W
Report Text: KDFW 260953Z 20008KT 10SM CLR 04/M01 A3004 RMK AO2 SLP171 T00391011
Loading
Personal Weather Stations






























Interactive Weather Map New forecast layout! Learn more

10-Day Weather Forecast

Advertisements
Track Severe Weather on mobile